createdAt,value
2018-08-29T00:00:50.269Z,95.27
2018-08-29T00:01:50.193Z,94.89
2018-08-29T00:02:50.080Z,95.36
2018-08-29T00:03:49.990Z,95.27
2018-08-29T00:04:49.896Z,94.79
2018-08-29T00:05:49.805Z,95.36
2018-08-29T00:06:49.737Z,94.89
2018-08-29T00:07:49.625Z,95.65
2018-08-29T00:08:49.531Z,94.98
2018-08-29T00:09:49.436Z,95.27
2018-08-29T00:10:49.345Z,94.60
2018-08-29T00:11:49.269Z,95.17
2018-08-29T00:12:49.165Z,95.36
2018-08-29T00:13:49.070Z,95.07
2018-08-29T00:14:48.977Z,94.89
2018-08-29T00:15:48.884Z,95.07
2018-08-29T00:16:48.808Z,95.27
2018-08-29T00:17:48.699Z,94.98
2018-08-29T00:18:48.609Z,94.60
2018-08-29T00:19:48.515Z,94.89
2018-08-29T00:20:48.426Z,94.79
2018-08-29T00:21:48.348Z,95.07
2018-08-29T00:22:48.241Z,94.89
2018-08-29T00:23:48.149Z,94.79
2018-08-29T00:24:48.056Z,95.27
2018-08-29T00:25:47.965Z,94.60
2018-08-29T00:26:47.896Z,94.50
2018-08-29T00:27:47.782Z,94.69
2018-08-29T00:28:47.687Z,94.89
2018-08-29T00:29:47.595Z,94.79
2018-08-29T00:30:47.504Z,94.98
2018-08-29T00:31:47.429Z,94.98
2018-08-29T00:32:47.319Z,94.69
2018-08-29T00:33:47.230Z,94.40
2018-08-29T00:34:47.137Z,94.60
2018-08-29T00:35:47.044Z,94.31
2018-08-29T00:36:46.968Z,94.50
2018-08-29T00:37:46.859Z,95.07
2018-08-29T00:38:46.766Z,94.89
2018-08-29T00:39:46.676Z,94.79
2018-08-29T00:40:46.582Z,95.07
2018-08-29T00:41:46.494Z,95.56
2018-08-29T00:42:46.419Z,94.89
2018-08-29T00:43:46.307Z,94.98
2018-08-29T00:44:46.214Z,94.50
2018-08-29T00:45:46.122Z,94.79
2018-08-29T00:46:46.049Z,94.98
2018-08-29T00:47:45.938Z,94.89
2018-08-29T00:48:45.846Z,94.84
2018-08-29T00:49:45.758Z,94.93
2018-08-29T00:50:45.672Z,94.93
2018-08-29T00:51:45.571Z,95.51
2018-08-29T00:52:45.601Z,95.41
2018-08-29T00:53:45.385Z,95.41
2018-08-29T00:54:45.293Z,96.08
2018-08-29T00:55:45.200Z,95.61
2018-08-29T00:56:45.124Z,95.51
2018-08-29T00:57:45.016Z,95.12
2018-08-29T00:58:44.927Z,95.17
2018-08-29T00:59:44.940Z,94.89
2018-08-29T01:00:44.743Z,95.07
2018-08-29T01:01:44.655Z,94.69
2018-08-29T01:02:44.571Z,95.03
2018-08-29T01:03:44.463Z,95.31
2018-08-29T01:04:44.371Z,94.69
2018-08-29T01:05:44.293Z,94.79
2018-08-29T01:06:44.190Z,94.40
2018-08-29T01:07:44.117Z,94.40
2018-08-29T01:08:44.003Z,94.69
2018-08-29T01:09:43.914Z,94.98
2018-08-29T01:10:43.820Z,95.07
2018-08-29T01:11:43.728Z,94.69
2018-08-29T01:12:43.653Z,95.12
2018-08-29T01:13:43.646Z,95.41
2018-08-29T01:14:43.451Z,95.31
2018-08-29T01:15:43.357Z,95.41
2018-08-29T01:16:43.265Z,95.41
2018-08-29T01:17:43.193Z,95.41
2018-08-29T01:18:43.086Z,95.12
2018-08-29T01:19:42.991Z,95.79
2018-08-29T01:20:43.002Z,96.18
2018-08-29T01:21:42.806Z,95.79
2018-08-29T01:22:42.730Z,96.08
2018-08-29T01:23:42.621Z,95.89
2018-08-29T01:24:42.530Z,95.79
2018-08-29T01:25:42.444Z,95.89
2018-08-29T01:26:42.347Z,95.89
2018-08-29T01:27:42.376Z,95.79
2018-08-29T01:28:42.159Z,95.98
2018-08-29T01:29:42.068Z,95.89
2018-08-29T01:30:41.975Z,95.51
2018-08-29T01:31:41.884Z,96.08
2018-08-29T01:32:41.809Z,95.22
2018-08-29T01:33:41.699Z,95.79
2018-08-29T01:34:41.713Z,95.51
2018-08-29T01:35:41.516Z,95.51
2018-08-29T01:36:41.427Z,95.70
2018-08-29T01:37:41.351Z,95.98
2018-08-29T01:38:41.282Z,95.51
2018-08-29T01:39:41.149Z,96.18
2018-08-29T01:40:41.054Z,96.27
2018-08-29T01:41:41.068Z,96.56
2018-08-29T01:42:40.888Z,96.47
2018-08-29T01:43:40.779Z,96.75
2018-08-29T01:44:40.685Z,96.94
2018-08-29T01:45:40.594Z,97.33
2018-08-29T01:46:40.514Z,97.04
2018-08-29T01:47:40.425Z,97.33
2018-08-29T01:48:40.423Z,97.33
2018-08-29T01:49:40.226Z,97.13
2018-08-29T01:50:40.136Z,97.23
2018-08-29T01:51:40.039Z,97.23
2018-08-29T01:52:39.965Z,97.33
2018-08-29T01:53:39.855Z,96.66
2018-08-29T01:54:39.765Z,96.47
2018-08-29T01:55:39.776Z,96.37
2018-08-29T01:56:39.580Z,96.66
2018-08-29T01:57:39.503Z,96.75
2018-08-29T01:58:39.399Z,96.75
2018-08-29T01:59:39.303Z,96.84
2018-08-29T02:00:39.211Z,96.94
2018-08-29T02:01:39.120Z,97.13
2018-08-29T02:02:39.153Z,97.37
2018-08-29T02:03:38.937Z,97.13
2018-08-29T02:04:38.843Z,97.18
2018-08-29T02:05:38.756Z,96.94
2018-08-29T02:06:38.658Z,97.04
2018-08-29T02:07:38.588Z,97.13
2018-08-29T02:08:38.476Z,97.52
2018-08-29T02:09:38.487Z,97.04
2018-08-29T02:10:38.294Z,97.04
2018-08-29T02:11:38.201Z,97.08
2018-08-29T02:12:38.126Z,97.47
2018-08-29T02:13:38.017Z,97.85
2018-08-29T02:14:37.924Z,97.75
2018-08-29T02:15:37.833Z,98.24
2018-08-29T02:16:37.837Z,97.85
2018-08-29T02:17:37.666Z,98.14
2018-08-29T02:18:37.554Z,97.85
2018-08-29T02:19:37.461Z,97.13
2018-08-29T02:20:37.368Z,97.13
2018-08-29T02:21:37.280Z,97.47
2018-08-29T02:22:37.202Z,97.18
2018-08-29T02:23:37.093Z,97.18
2018-08-29T02:24:37.001Z,97.85
2018-08-29T02:25:36.908Z,97.47
2018-08-29T02:26:36.815Z,98.14
2018-08-29T02:27:36.741Z,97.85
2018-08-29T02:28:36.630Z,97.85
2018-08-29T02:29:36.545Z,98.24
2018-08-29T02:30:36.451Z,97.95
2018-08-29T02:31:36.350Z,98.24
2018-08-29T02:32:36.287Z,97.42
2018-08-29T02:33:36.176Z,97.23
2018-08-29T02:34:36.079Z,96.94
2018-08-29T02:35:35.985Z,97.23
2018-08-29T02:36:35.897Z,97.23
2018-08-29T02:37:35.832Z,97.04
2018-08-29T02:38:35.711Z,97.33
2018-08-29T02:39:35.617Z,97.52
2018-08-29T02:40:35.523Z,96.99
2018-08-29T02:41:35.436Z,98.38
2018-08-29T02:42:35.340Z,97.52
2018-08-29T02:43:37.886Z,97.13
2018-08-29T02:44:35.155Z,97.23
2018-08-29T02:45:35.359Z,97.52
2018-08-29T02:46:34.970Z,97.23
2018-08-29T02:47:34.888Z,97.71
2018-08-29T02:48:34.800Z,97.04
2018-08-29T02:49:34.694Z,97.42
2018-08-29T02:50:34.600Z,97.52
2018-08-29T02:51:34.504Z,96.84
2018-08-29T02:52:34.418Z,97.33
2018-08-29T02:53:34.341Z,97.52
2018-08-29T02:54:34.230Z,97.33
2018-08-29T02:55:34.138Z,96.94
2018-08-29T02:56:34.047Z,97.23
2018-08-29T02:57:33.954Z,97.52
2018-08-29T02:58:33.880Z,97.90
2018-08-29T02:59:33.765Z,97.90
2018-08-29T03:00:33.679Z,98.00
2018-08-29T03:01:33.582Z,98.09
2018-08-29T03:02:33.492Z,97.90
2018-08-29T03:03:33.419Z,97.52
2018-08-29T03:04:33.307Z,97.61
2018-08-29T03:05:33.219Z,97.90
2018-08-29T03:06:33.124Z,97.71
2018-08-29T03:07:33.028Z,97.80
2018-08-29T03:08:32.952Z,98.09
2018-08-29T03:09:32.846Z,97.80
2018-08-29T03:10:32.755Z,97.90
2018-08-29T03:11:32.658Z,97.61
2018-08-29T03:12:32.567Z,98.00
2018-08-29T03:13:32.492Z,97.42
2018-08-29T03:14:32.381Z,98.28
2018-08-29T03:15:32.293Z,97.71
2018-08-29T03:16:32.196Z,98.86
2018-08-29T03:17:32.107Z,98.57
2018-08-29T03:18:32.033Z,98.28
2018-08-29T03:19:31.920Z,98.28
2018-08-29T03:20:31.827Z,98.57
2018-08-29T03:21:31.738Z,98.19
2018-08-29T03:22:31.643Z,98.38
2018-08-29T03:23:31.568Z,98.28
2018-08-29T03:24:31.462Z,97.71
2018-08-29T03:25:31.368Z,98.00
2018-08-29T03:26:31.298Z,98.19
2018-08-29T03:27:31.181Z,98.28
2018-08-29T03:28:31.116Z,98.09
2018-08-29T03:29:30.997Z,98.76
2018-08-29T03:30:30.909Z,98.47
2018-08-29T03:31:30.812Z,98.28
2018-08-29T03:32:30.723Z,98.19
2018-08-29T03:33:30.653Z,98.76
2018-08-29T03:34:30.537Z,98.28
2018-08-29T03:35:30.445Z,98.86
2018-08-29T03:36:30.356Z,98.86
2018-08-29T03:37:30.257Z,99.43
2018-08-29T03:38:30.248Z,99.43
2018-08-29T03:39:30.076Z,99.24
2018-08-29T03:40:29.981Z,99.15
2018-08-29T03:41:29.889Z,99.24
2018-08-29T03:42:29.801Z,99.24
2018-08-29T03:43:29.726Z,99.33
2018-08-29T03:44:29.613Z,99.15
2018-08-29T03:45:29.520Z,99.15
2018-08-29T03:46:29.431Z,99.24
2018-08-29T03:47:29.335Z,98.86
2018-08-29T03:48:29.259Z,99.72
2018-08-29T03:49:29.165Z,99.62
2018-08-29T03:50:29.060Z,99.52
2018-08-29T03:51:28.969Z,99.72
2018-08-29T03:52:28.881Z,99.33
2018-08-29T03:53:28.798Z,99.99
2018-08-29T03:54:28.789Z,99.72
2018-08-29T03:55:28.599Z,99.52
2018-08-29T03:56:28.506Z,99.72
2018-08-29T03:57:28.413Z,99.99
2018-08-29T03:58:28.337Z,99.99
2018-08-29T03:59:28.228Z,99.99
2018-08-29T04:00:28.138Z,99.99
2018-08-29T04:01:28.145Z,99.99
2018-08-29T04:02:27.956Z,99.99
2018-08-29T04:03:27.888Z,99.99
2018-08-29T04:04:27.766Z,99.91
2018-08-29T04:05:27.675Z,99.99
2018-08-29T04:06:27.582Z,99.99
2018-08-29T04:07:27.490Z,99.99
2018-08-29T04:08:27.522Z,99.99
2018-08-29T04:09:27.304Z,99.99
2018-08-29T04:10:27.211Z,99.99
2018-08-29T04:11:27.121Z,99.99
2018-08-29T04:12:27.026Z,99.99
2018-08-29T04:13:26.962Z,99.99
2018-08-29T04:14:26.841Z,99.99
2018-08-29T04:15:26.857Z,99.99
2018-08-29T04:16:26.661Z,99.99
2018-08-29T04:17:26.566Z,99.99
2018-08-29T04:18:26.490Z,99.99
2018-08-29T04:19:26.379Z,99.99
2018-08-29T04:20:26.287Z,99.99
2018-08-29T04:21:26.198Z,99.99
2018-08-29T04:22:26.209Z,99.99
2018-08-29T04:23:26.029Z,99.99
2018-08-29T04:24:25.922Z,99.91
2018-08-29T04:25:25.831Z,99.91
2018-08-29T04:26:25.735Z,99.99
2018-08-29T04:27:25.643Z,99.99
2018-08-29T04:28:25.566Z,99.99
2018-08-29T04:29:25.569Z,99.99
2018-08-29T04:30:25.366Z,99.99
2018-08-29T04:31:25.275Z,99.99
2018-08-29T04:32:25.223Z,99.99
2018-08-29T04:33:25.091Z,99.99
2018-08-29T04:34:25.014Z,99.99
2018-08-29T04:35:24.906Z,99.99
2018-08-29T04:36:24.919Z,99.99
2018-08-29T04:37:24.717Z,99.99
2018-08-29T04:38:24.634Z,99.99
2018-08-29T04:39:24.554Z,99.99
2018-08-29T04:40:24.465Z,99.99
2018-08-29T04:41:24.350Z,99.99
2018-08-29T04:42:24.258Z,99.99
2018-08-29T04:43:24.273Z,99.99
2018-08-29T04:44:24.092Z,99.99
2018-08-29T04:45:23.984Z,99.99
2018-08-29T04:46:23.891Z,99.99
2018-08-29T04:47:23.799Z,99.99
2018-08-29T04:48:23.708Z,99.99
2018-08-29T04:49:23.731Z,99.99
2018-08-29T04:50:23.520Z,99.99
2018-08-29T04:51:23.428Z,99.99
2018-08-29T04:52:23.335Z,99.99
2018-08-29T04:53:23.244Z,99.99
2018-08-29T04:54:23.171Z,99.99
2018-08-29T04:55:23.058Z,99.99
2018-08-29T04:56:22.963Z,99.99
2018-08-29T04:57:22.877Z,99.81
2018-08-29T04:58:22.782Z,99.99
2018-08-29T04:59:22.706Z,99.99
2018-08-29T05:00:22.601Z,99.99
2018-08-29T05:01:22.507Z,99.99
2018-08-29T05:02:22.414Z,99.58
2018-08-29T05:03:22.323Z,99.48
2018-08-29T05:04:22.349Z,99.58
2018-08-29T05:05:22.137Z,99.77
2018-08-29T05:06:22.048Z,99.87
2018-08-29T05:07:21.955Z,99.87
2018-08-29T05:08:21.861Z,99.77
2018-08-29T05:09:21.786Z,99.99
2018-08-29T05:10:21.808Z,99.87
2018-08-29T05:11:21.590Z,99.38
2018-08-29T05:12:21.496Z,99.58
2018-08-29T05:13:21.403Z,99.10
2018-08-29T05:14:21.326Z,99.00
2018-08-29T05:15:21.217Z,99.29
2018-08-29T05:16:21.126Z,98.91
2018-08-29T05:17:21.035Z,98.71
2018-08-29T05:18:20.947Z,98.91
2018-08-29T05:19:20.866Z,98.71
2018-08-29T05:20:20.763Z,98.38
2018-08-29T05:21:20.668Z,98.52
2018-08-29T05:22:20.577Z,99.10
2018-08-29T05:23:20.488Z,98.33
2018-08-29T05:24:20.405Z,98.33
2018-08-29T05:25:20.301Z,98.38
2018-08-29T05:26:20.205Z,98.28
2018-08-29T05:27:20.118Z,98.28
2018-08-29T05:28:20.030Z,98.19
2018-08-29T05:29:19.951Z,98.28
2018-08-29T05:30:19.841Z,98.19
2018-08-29T05:31:19.765Z,98.00
2018-08-29T05:32:19.657Z,98.00
2018-08-29T05:33:19.565Z,98.28
2018-08-29T05:34:19.495Z,97.23
2018-08-29T05:35:19.385Z,97.33
2018-08-29T05:36:19.288Z,97.42
2018-08-29T05:37:19.200Z,97.52
2018-08-29T05:38:19.106Z,97.33
2018-08-29T05:39:19.032Z,97.42
2018-08-29T05:40:18.927Z,97.66
2018-08-29T05:41:18.833Z,97.42
2018-08-29T05:42:18.741Z,97.18
2018-08-29T05:43:18.650Z,97.09
2018-08-29T05:44:18.577Z,97.18
2018-08-29T05:45:18.470Z,97.18
2018-08-29T05:46:18.376Z,96.42
2018-08-29T05:47:18.318Z,96.70
2018-08-29T05:48:18.295Z,95.84
2018-08-29T05:49:18.123Z,95.84
2018-08-29T05:50:18.015Z,95.94
2018-08-29T05:51:17.920Z,96.13
2018-08-29T05:52:17.829Z,96.22
2018-08-29T05:53:17.741Z,95.94
2018-08-29T05:54:17.680Z,95.94
2018-08-29T05:55:17.582Z,95.94
2018-08-29T05:56:17.464Z,96.03
2018-08-29T05:57:17.378Z,95.84
2018-08-29T05:58:17.284Z,96.03
2018-08-29T05:59:17.209Z,95.46
2018-08-29T06:00:17.100Z,95.26
2018-08-29T06:01:17.012Z,95.36
2018-08-29T06:02:16.920Z,95.46
2018-08-29T06:03:16.828Z,95.46
2018-08-29T06:04:16.754Z,95.56
2018-08-29T06:05:16.648Z,95.51
2018-08-29T06:06:16.559Z,96.03
2018-08-29T06:07:16.464Z,95.56
2018-08-29T06:08:16.373Z,95.75
2018-08-29T06:09:16.300Z,95.75
2018-08-29T06:10:16.194Z,96.22
2018-08-29T06:11:16.106Z,96.37
2018-08-29T06:12:16.011Z,95.94
2018-08-29T06:13:16.036Z,95.89
2018-08-29T06:14:15.835Z,95.41
2018-08-29T06:15:15.758Z,94.98
2018-08-29T06:16:15.647Z,95.07
2018-08-29T06:17:15.561Z,94.84
2018-08-29T06:18:15.474Z,95.03
2018-08-29T06:19:15.383Z,95.12
2018-08-29T06:20:15.307Z,94.74
2018-08-29T06:21:15.196Z,94.35
2018-08-29T06:22:15.110Z,94.40
2018-08-29T06:23:15.020Z,94.49
2018-08-29T06:24:14.929Z,93.92
2018-08-29T06:25:14.850Z,93.63
2018-08-29T06:26:14.750Z,93.63
2018-08-29T06:27:14.764Z,93.06
2018-08-29T06:28:14.569Z,93.15
2018-08-29T06:29:14.485Z,93.63
2018-08-29T06:30:14.403Z,93.35
2018-08-29T06:31:14.317Z,93.63
2018-08-29T06:32:14.200Z,92.77
2018-08-29T06:33:14.113Z,92.19
2018-08-29T06:34:14.142Z,92.82
2018-08-29T06:35:13.995Z,92.05
2018-08-29T06:36:13.843Z,92.24
2018-08-29T06:37:13.752Z,91.19
2018-08-29T06:38:13.660Z,92.24
2018-08-29T06:39:13.577Z,91.04
2018-08-29T06:40:13.509Z,90.46
2018-08-29T06:41:13.490Z,90.27
2018-08-29T06:42:13.303Z,89.31
2018-08-29T06:43:13.213Z,89.31
2018-08-29T06:44:13.125Z,89.64
2018-08-29T06:45:13.054Z,88.10
2018-08-29T06:46:12.946Z,88.30
2018-08-29T06:47:12.863Z,87.92
2018-08-29T06:48:12.872Z,87.62
2018-08-29T06:49:12.678Z,86.95
2018-08-29T06:50:12.610Z,86.95
2018-08-29T06:51:12.502Z,87.62
2018-08-29T06:52:12.417Z,87.29
2018-08-29T06:53:12.323Z,86.66
2018-08-29T06:54:12.237Z,87.05
2018-08-29T06:55:12.267Z,86.61
2018-08-29T06:56:12.064Z,86.80
2018-08-29T06:57:11.971Z,86.80
2018-08-29T06:58:11.885Z,85.75
2018-08-29T06:59:11.793Z,85.94
2018-08-29T07:00:11.725Z,85.55
2018-08-29T07:01:11.625Z,86.22
2018-08-29T07:02:11.635Z,85.65
2018-08-29T07:03:11.444Z,85.94
2018-08-29T07:04:11.355Z,86.32
2018-08-29T07:05:11.287Z,86.42
2018-08-29T07:06:11.182Z,85.94
2018-08-29T07:07:11.094Z,85.75
2018-08-29T07:08:11.005Z,85.60
2018-08-29T07:09:11.061Z,85.31
2018-08-29T07:10:10.850Z,84.25
2018-08-29T07:11:10.742Z,84.10
2018-08-29T07:12:10.655Z,84.34
2018-08-29T07:13:10.568Z,83.86
2018-08-29T07:14:10.482Z,84.63
2018-08-29T07:15:10.409Z,84.16
2018-08-29T07:16:10.446Z,84.34
2018-08-29T07:17:10.220Z,84.19
2018-08-29T07:18:10.161Z,83.72
2018-08-29T07:19:10.046Z,82.31
2018-08-29T07:20:09.975Z,82.41
2018-08-29T07:21:09.873Z,82.41
2018-08-29T07:22:09.789Z,82.31
2018-08-29T07:23:09.887Z,82.98
2018-08-29T07:24:09.608Z,82.12
2018-08-29T07:25:09.544Z,82.35
2018-08-29T07:26:09.443Z,80.91
2018-08-29T07:27:09.348Z,80.76
2018-08-29T07:28:09.262Z,80.71
2018-08-29T07:29:09.258Z,81.20
2018-08-29T07:30:09.211Z,80.56
2018-08-29T07:31:09.001Z,80.18
2018-08-29T07:32:08.915Z,79.11
2018-08-29T07:33:08.829Z,79.85
2018-08-29T07:34:08.744Z,79.02
2018-08-29T07:35:08.675Z,80.33
2018-08-29T07:36:08.752Z,80.04
2018-08-29T07:37:08.484Z,80.04
2018-08-29T07:38:08.402Z,80.14
2018-08-29T07:39:08.311Z,80.52
2018-08-29T07:40:08.248Z,80.81
2018-08-29T07:41:08.143Z,80.91
2018-08-29T07:42:08.176Z,80.76
2018-08-29T07:43:07.970Z,80.37
2018-08-29T07:44:07.884Z,79.79
2018-08-29T07:45:07.816Z,79.60
2018-08-29T07:46:07.714Z,80.18
2018-08-29T07:47:07.625Z,80.08
2018-08-29T07:48:07.539Z,79.98
2018-08-29T07:49:07.453Z,79.79
2018-08-29T07:50:07.385Z,79.60
2018-08-29T07:51:07.285Z,79.64
2018-08-29T07:52:07.196Z,78.96
2018-08-29T07:53:07.112Z,78.38
2018-08-29T07:54:07.050Z,78.25
2018-08-29T07:55:06.956Z,79.35
2018-08-29T07:56:06.862Z,77.94
2018-08-29T07:57:06.768Z,78.00
2018-08-29T07:58:06.685Z,77.26
2018-08-29T07:59:06.598Z,76.50
2018-08-29T08:00:06.516Z,76.59
2018-08-29T08:01:06.449Z,76.93
2018-08-29T08:02:06.344Z,77.71
2018-08-29T08:03:06.267Z,77.71
2018-08-29T08:04:06.172Z,78.00
2018-08-29T08:05:06.089Z,78.09
2018-08-29T08:06:06.017Z,77.75
2018-08-29T08:07:05.916Z,77.36
2018-08-29T08:08:06.048Z,77.36
2018-08-29T08:09:06.183Z,76.15
2018-08-29T08:10:05.666Z,75.79
2018-08-29T08:11:05.591Z,74.69
2018-08-29T08:12:05.496Z,74.51
2018-08-29T08:13:05.409Z,75.02
2018-08-29T08:14:05.322Z,74.54
2018-08-29T08:15:05.238Z,74.06
2018-08-29T08:16:05.172Z,75.06
2018-08-29T08:17:05.079Z,73.52
2018-08-29T08:18:04.986Z,74.29
2018-08-29T08:19:04.899Z,73.42
2018-08-29T08:20:04.817Z,72.84
2018-08-29T08:21:04.777Z,73.22
2018-08-29T08:22:04.654Z,72.84
2018-08-29T08:23:04.585Z,73.42
2018-08-29T08:24:04.477Z,73.61
2018-08-29T08:25:04.394Z,72.64
2018-08-29T08:26:04.334Z,72.58
2018-08-29T08:27:04.227Z,72.45
2018-08-29T08:28:04.146Z,72.45
2018-08-29T08:29:04.098Z,73.03
2018-08-29T08:30:03.973Z,72.74
2018-08-29T08:31:03.932Z,72.30
2018-08-29T08:32:03.811Z,72.49
2018-08-29T08:33:03.725Z,71.72
2018-08-29T08:34:03.643Z,71.81
2018-08-29T08:35:03.557Z,71.62
2018-08-29T08:36:03.494Z,71.81
2018-08-29T08:37:03.392Z,71.75
2018-08-29T08:38:03.308Z,71.62
2018-08-29T08:39:03.225Z,71.17
2018-08-29T08:40:03.139Z,71.62
2018-08-29T08:41:03.161Z,72.49
2018-08-29T08:42:02.973Z,73.03
2018-08-29T08:43:02.891Z,72.36
2018-08-29T08:44:02.807Z,71.75
2018-08-29T08:45:02.724Z,70.98
2018-08-29T08:46:02.661Z,70.72
2018-08-29T08:47:02.557Z,70.30
2018-08-29T08:48:02.511Z,70.53
2018-08-29T08:49:02.570Z,70.56
2018-08-29T08:50:02.363Z,70.01
2018-08-29T08:51:02.247Z,69.56
2018-08-29T08:52:02.145Z,69.46
2018-08-29T08:53:02.061Z,70.04
2018-08-29T08:54:02.102Z,70.92
2018-08-29T08:55:01.903Z,70.56
2018-08-29T08:56:01.831Z,69.59
2018-08-29T08:57:01.730Z,69.82
2018-08-29T08:58:01.649Z,69.31
2018-08-29T08:59:01.566Z,68.43
2018-08-29T09:00:01.508Z,67.85
2018-08-29T09:01:01.415Z,68.53
2018-08-29T09:02:01.321Z,68.63
2018-08-29T09:03:01.236Z,68.24
2018-08-29T09:04:01.152Z,67.98
2018-08-29T09:05:01.071Z,67.79
2018-08-29T09:06:01.018Z,67.53
2018-08-29T09:07:01.100Z,67.37
2018-08-29T09:08:00.829Z,65.63
2018-08-29T09:09:00.744Z,64.01
2018-08-29T09:10:00.661Z,65.24
2018-08-29T09:11:00.592Z,64.07
2018-08-29T09:12:00.496Z,63.82
2018-08-29T09:13:00.417Z,63.53
2018-08-29T09:14:00.333Z,64.20
2018-08-29T09:15:00.252Z,64.30
2018-08-29T09:16:00.189Z,64.82
2018-08-29T09:17:00.087Z,66.69
2018-08-29T09:18:00.007Z,65.05
2018-08-29T09:18:59.928Z,65.47
2018-08-29T09:19:59.866Z,65.43
2018-08-29T09:20:59.781Z,64.65
2018-08-29T09:21:59.685Z,65.24
2018-08-29T09:22:59.597Z,65.53
2018-08-29T09:23:59.519Z,66.20
2018-08-29T09:24:59.439Z,65.08
2018-08-29T09:25:59.370Z,64.85
2018-08-29T09:26:59.272Z,64.65
2018-08-29T09:27:59.192Z,65.08
2018-08-29T09:28:59.210Z,63.46
2018-08-29T09:29:59.032Z,62.65
2018-08-29T09:30:58.966Z,62.29
2018-08-29T09:31:58.869Z,61.09
2018-08-29T09:32:58.790Z,61.87
2018-08-29T09:33:58.707Z,62.98
2018-08-29T09:34:58.658Z,64.82
2018-08-29T09:35:58.666Z,64.59
2018-08-29T09:36:58.462Z,64.40
2018-08-29T09:37:58.384Z,63.04
2018-08-29T09:38:58.304Z,62.49
2018-08-29T09:39:58.222Z,62.01
2018-08-29T09:40:58.158Z,63.20
2018-08-29T09:41:58.064Z,61.48
2018-08-29T09:42:58.091Z,61.35
2018-08-29T09:43:57.902Z,62.71
2018-08-29T09:44:57.905Z,61.12
2018-08-29T09:45:57.758Z,59.89
2018-08-29T09:46:57.668Z,59.59
2018-08-29T09:47:57.576Z,58.23
2018-08-29T09:48:57.501Z,58.40
2018-08-29T09:49:57.519Z,59.54
2018-08-29T09:50:57.340Z,59.83
2018-08-29T09:51:57.273Z,60.71
2018-08-29T09:52:57.179Z,61.35
2018-08-29T09:53:57.097Z,61.07
2018-08-29T09:54:57.015Z,61.81
2018-08-29T09:55:56.943Z,61.16
2018-08-29T09:56:57.006Z,62.13
2018-08-29T09:57:56.779Z,61.58
2018-08-29T09:58:56.694Z,61.84
2018-08-29T09:59:56.619Z,60.61
2018-08-29T10:00:56.535Z,59.79
2018-08-29T10:01:56.470Z,59.83
2018-08-29T10:02:56.374Z,59.44
2018-08-29T10:03:56.395Z,60.02
2018-08-29T10:04:56.258Z,59.50
2018-08-29T10:05:56.139Z,58.92
2018-08-29T10:06:56.076Z,59.63
2018-08-29T10:07:55.978Z,58.07
2018-08-29T10:08:55.900Z,58.53
2018-08-29T10:09:55.855Z,58.89
2018-08-29T10:10:55.836Z,59.67
2018-08-29T10:11:55.672Z,59.50
2018-08-29T10:12:55.578Z,59.69
2018-08-29T10:13:55.496Z,59.50
2018-08-29T10:14:55.415Z,58.04
2018-08-29T10:15:55.334Z,57.12
2018-08-29T10:16:55.274Z,58.56
2018-08-29T10:17:55.281Z,59.59
2018-08-29T10:18:55.186Z,59.44
2018-08-29T10:19:55.014Z,58.79
2018-08-29T10:20:54.936Z,59.38
2018-08-29T10:21:54.875Z,58.82
2018-08-29T10:22:54.778Z,59.57
2018-08-29T10:23:54.699Z,59.57
2018-08-29T10:24:54.722Z,59.41
2018-08-29T10:25:54.540Z,59.47
2018-08-29T10:26:54.480Z,60.18
2018-08-29T10:27:54.380Z,59.83
2018-08-29T10:28:54.299Z,60.00
2018-08-29T10:29:54.221Z,59.44
2018-08-29T10:30:54.140Z,58.92
2018-08-29T10:31:54.182Z,59.14
2018-08-29T10:32:53.981Z,58.59
2018-08-29T10:33:53.908Z,56.93
2018-08-29T10:34:53.821Z,57.95
2018-08-29T10:35:53.742Z,58.33
2018-08-29T10:36:53.677Z,57.12
2018-08-29T10:37:53.618Z,57.03
2018-08-29T10:38:53.603Z,57.56
2018-08-29T10:39:53.424Z,59.53
2018-08-29T10:40:53.341Z,58.33
2018-08-29T10:41:53.282Z,58.62
2018-08-29T10:42:53.181Z,58.69
2018-08-29T10:43:53.103Z,58.82
2018-08-29T10:44:53.076Z,58.40
2018-08-29T10:45:53.044Z,58.62
2018-08-29T10:46:52.908Z,58.07
2018-08-29T10:47:52.786Z,59.00
2018-08-29T10:48:52.707Z,58.00
2018-08-29T10:49:52.625Z,58.00
2018-08-29T10:50:52.544Z,57.61
2018-08-29T10:51:52.482Z,57.28
2018-08-29T10:52:52.386Z,56.01
2018-08-29T10:53:52.323Z,55.85
2018-08-29T10:54:52.229Z,56.01
2018-08-29T10:55:52.146Z,56.15
2018-08-29T10:56:52.088Z,56.57
2018-08-29T10:57:51.988Z,57.95
2018-08-29T10:58:51.911Z,58.17
2018-08-29T10:59:51.828Z,58.92
2018-08-29T11:00:51.753Z,60.18
2018-08-29T11:01:51.688Z,57.39
2018-08-29T11:02:51.590Z,57.78
2018-08-29T11:03:51.510Z,56.61
2018-08-29T11:04:51.436Z,56.74
2018-08-29T11:05:51.353Z,56.22
2018-08-29T11:06:51.289Z,55.21
2018-08-29T11:07:51.191Z,56.18
2018-08-29T11:08:51.193Z,57.75
2018-08-29T11:09:51.038Z,59.18
2018-08-29T11:10:50.959Z,58.62
2018-08-29T11:11:50.892Z,58.20
2018-08-29T11:12:50.798Z,57.28
2018-08-29T11:13:50.719Z,55.60
2018-08-29T11:14:50.640Z,55.89
2018-08-29T11:15:50.559Z,54.82
2018-08-29T11:16:50.500Z,56.32
2018-08-29T11:17:50.406Z,55.37
2018-08-29T11:18:50.324Z,54.13
2018-08-29T11:19:50.243Z,56.05
2018-08-29T11:20:50.163Z,55.86
2018-08-29T11:21:50.100Z,56.59
2018-08-29T11:22:50.001Z,56.64
2018-08-29T11:23:49.924Z,56.76
2018-08-29T11:24:49.845Z,55.94
2018-08-29T11:25:49.767Z,54.09
2018-08-29T11:26:49.703Z,54.48
2018-08-29T11:27:49.618Z,55.37
2018-08-29T11:28:49.532Z,55.90
2018-08-29T11:29:49.453Z,56.65
2018-08-29T11:30:49.372Z,57.89
2018-08-29T11:31:49.305Z,58.76
2018-08-29T11:32:49.210Z,57.89
2018-08-29T11:33:49.130Z,58.57
2018-08-29T11:34:49.130Z,57.89
2018-08-29T11:35:48.976Z,58.86
2018-08-29T11:36:48.917Z,58.93
2018-08-29T11:37:48.815Z,58.28
2018-08-29T11:38:48.737Z,56.56
2018-08-29T11:39:48.658Z,55.98
2018-08-29T11:40:48.577Z,55.80
2018-08-29T11:41:48.495Z,54.76
2018-08-29T11:42:48.557Z,54.60
2018-08-29T11:43:48.332Z,53.14
2018-08-29T11:44:48.255Z,52.70
2018-08-29T11:45:48.175Z,52.83
2018-08-29T11:46:48.095Z,53.21
2018-08-29T11:47:48.028Z,53.21
2018-08-29T11:48:47.933Z,52.44
2018-08-29T11:49:47.853Z,52.44
2018-08-29T11:50:47.789Z,51.53
2018-08-29T11:51:47.695Z,51.99
2018-08-29T11:52:47.642Z,52.31
2018-08-29T11:53:47.536Z,51.26
2018-08-29T11:54:47.456Z,50.99
2018-08-29T11:55:47.376Z,51.04
2018-08-29T11:56:47.302Z,52.75
2018-08-29T11:57:47.236Z,52.16
2018-08-29T11:58:47.141Z,52.59
2018-08-29T11:59:47.057Z,53.01
2018-08-29T12:00:46.978Z,52.23
2018-08-29T12:01:47.005Z,52.53
2018-08-29T12:02:46.837Z,52.59
2018-08-29T12:03:46.740Z,52.69
2018-08-29T12:04:46.663Z,52.31
2018-08-29T12:05:46.584Z,51.19
2018-08-29T12:06:46.504Z,50.90
2018-08-29T12:07:46.438Z,51.19
2018-08-29T12:08:46.445Z,52.75
2018-08-29T12:09:46.265Z,50.92
2018-08-29T12:10:46.181Z,50.58
2018-08-29T12:11:46.105Z,50.16
2018-08-29T12:12:46.041Z,49.19
2018-08-29T12:13:45.944Z,50.09
2018-08-29T12:14:45.901Z,49.12
2018-08-29T12:15:45.906Z,49.58
2018-08-29T12:16:45.790Z,51.53
2018-08-29T12:17:45.645Z,50.26
2018-08-29T12:18:45.546Z,49.39
2018-08-29T12:19:45.468Z,51.55
2018-08-29T12:20:45.390Z,51.29
2018-08-29T12:21:45.309Z,49.85
2018-08-29T12:22:45.350Z,49.46
2018-08-29T12:23:45.151Z,48.68
2018-08-29T12:24:45.070Z,48.00
2018-08-29T12:25:44.992Z,48.05
2018-08-29T12:26:44.911Z,47.83
2018-08-29T12:27:44.871Z,49.76
2018-08-29T12:28:44.751Z,49.07
2018-08-29T12:29:44.774Z,49.54
2018-08-29T12:30:44.591Z,49.27
2018-08-29T12:31:44.568Z,49.95
2018-08-29T12:32:44.454Z,49.80
2018-08-29T12:33:44.355Z,48.66
2018-08-29T12:34:44.278Z,47.97
2018-08-29T12:35:44.194Z,48.54
2018-08-29T12:36:44.221Z,48.80
2018-08-29T12:37:44.057Z,48.71
2018-08-29T12:38:43.956Z,49.24
2018-08-29T12:39:43.876Z,49.73
2018-08-29T12:40:43.799Z,50.31
2018-08-29T12:41:43.723Z,50.21
2018-08-29T12:42:43.654Z,49.34
2018-08-29T12:43:43.692Z,50.12
2018-08-29T12:44:43.481Z,49.92
2018-08-29T12:45:43.398Z,49.56
2018-08-29T12:46:43.321Z,49.24
2018-08-29T12:47:43.255Z,48.66
2018-08-29T12:48:43.158Z,48.61
2018-08-29T12:49:43.107Z,47.05
2018-08-29T12:50:43.119Z,47.61
2018-08-29T12:51:42.921Z,49.80